Time;durP1;ratioP1;P1;durP2;ratioP2;P2;SDS_P1;SDS_P2;PMS_P1;PMS_P2;Temp;Humidity;BMP_temperature;BMP_pressure;BME280_temperature;BME280_humidity;BME280_pressure;Samples;Min_cycle;Max_cycle;Signal;HPM_P1;HPM_P2
2022/12/15 00:39:43;;;;;;;37.35;18.27;;;-4.40;99.90;;;;;;5052555;28;20080;-39
2022/12/15 00:42:09;;;;;;;36.78;19.20;;;-4.40;99.90;;;;;;5048388;28;20108;-40
2022/12/15 00:44:37;;;;;;;36.33;19.05;;;-4.40;99.90;;;;;;5046125;28;20049;-41
2022/12/15 00:47:03;;;;;;;34.67;18.25;;;-4.30;99.90;;;;;;5047698;28;20099;-39
2022/12/15 01:22:31;;;;;;;31.55;17.98;;;-4.40;99.90;;;;;;5046917;28;20419;-43
2022/12/15 01:24:58;;;;;;;32.78;17.30;;;-4.30;99.90;;;;;;5048563;28;20091;-42
2022/12/15 01:27:25;;;;;;;34.03;17.45;;;-4.30;99.90;;;;;;5049405;28;20451;-40
2022/12/15 01:29:52;;;;;;;36.38;18.85;;;-4.40;99.90;;;;;;5046854;28;20049;-41
2022/12/15 01:32:18;;;;;;;39.25;19.30;;;-4.30;99.90;;;;;;5050304;28;20045;-43
2022/12/15 01:34:45;;;;;;;37.42;18.58;;;-4.40;99.90;;;;;;5050802;28;20052;-42
2022/12/15 01:37:12;;;;;;;28.85;16.20;;;-4.40;99.90;;;;;;5047692;28;20060;-43
2022/12/15 01:42:24;;;;;;;31.83;17.00;;;-4.40;99.90;;;;;;5052397;28;20041;-42
2022/12/15 01:44:52;;;;;;;29.58;15.80;;;-4.40;99.90;;;;;;5054328;28;20111;-41
2022/12/15 01:47:20;;;;;;;37.45;18.30;;;-4.40;99.90;;;;;;5052777;28;20103;-42
2022/12/15 01:49:47;;;;;;;33.08;17.05;;;-4.40;99.90;;;;;;5054302;28;20114;-41
2022/12/15 01:52:14;;;;;;;31.10;16.40;;;-4.40;99.90;;;;;;5052385;28;20548;-42
2022/12/15 01:54:44;;;;;;;33.20;16.23;;;-4.40;99.90;;;;;;5051486;28;20378;-44
2022/12/15 01:57:14;;;;;;;36.95;18.60;;;-4.40;99.90;;;;;;5051115;28;20079;-42
2022/12/15 01:59:42;;;;;;;33.97;17.80;;;-4.40;99.90;;;;;;5053793;28;20102;-42
2022/12/15 02:02:09;;;;;;;30.45;16.02;;;-4.40;99.90;;;;;;5052240;28;20053;-41
2022/12/15 02:04:36;;;;;;;31.15;16.02;;;-4.40;99.90;;;;;;5054361;28;20444;-43
2022/12/15 02:07:03;;;;;;;29.77;15.90;;;-4.50;99.90;;;;;;5053324;28;20119;-44
2022/12/15 02:09:30;;;;;;;31.75;16.92;;;-4.50;99.90;;;;;;5053292;28;20493;-40
2022/12/15 02:12:00;;;;;;;36.05;16.63;;;-4.50;99.90;;;;;;5052378;28;20053;-41
2022/12/15 02:14:35;;;;;;;28.75;15.52;;;-4.40;99.90;;;;;;5053750;28;20067;-42
2022/12/15 02:17:07;;;;;;;32.78;17.10;;;-4.50;99.90;;;;;;5035089;28;20046;-43
2022/12/15 02:19:58;;;;;;;34.78;16.25;;;-4.50;99.90;;;;;;5044588;28;20432;-42
2022/12/15 02:22:30;;;;;;;31.00;15.25;;;-4.60;99.90;;;;;;5034759;28;20570;-41
2022/12/15 02:25:18;;;;;;;30.88;16.92;;;-4.60;99.90;;;;;;5041521;28;20102;-40
2022/12/15 02:27:52;;;;;;;32.40;16.70;;;-4.50;99.90;;;;;;5053802;28;20053;-40
2022/12/15 02:30:22;;;;;;;30.25;16.52;;;-4.60;99.90;;;;;;5053043;28;20103;-42
2022/12/15 02:32:54;;;;;;;28.52;16.02;;;-4.60;99.90;;;;;;5053913;28;20061;-40
2022/12/15 02:35:24;;;;;;;33.15;16.85;;;-4.60;99.90;;;;;;5052222;28;20570;-40
2022/12/15 02:37:50;;;;;;;37.72;17.38;;;-4.60;99.90;;;;;;5054215;28;20057;-42
2022/12/15 02:40:17;;;;;;;31.83;16.02;;;-4.50;99.90;;;;;;5050927;28;20501;-41
2022/12/15 02:42:45;;;;;;;36.35;17.38;;;-4.50;99.90;;;;;;5054408;28;20099;-41
2022/12/15 02:45:12;;;;;;;31.90;16.50;;;-4.50;99.90;;;;;;5053295;28;20049;-40
2022/12/15 02:47:44;;;;;;;34.10;16.80;;;-4.60;99.90;;;;;;5053690;28;20210;-41
2022/12/15 02:50:22;;;;;;;29.10;16.08;;;-4.50;99.90;;;;;;5053664;28;20049;-43
2022/12/15 02:52:54;;;;;;;35.75;17.17;;;-4.50;99.90;;;;;;5033434;28;20386;-42
2022/12/15 02:55:24;;;;;;;30.48;16.40;;;-4.50;99.90;;;;;;5049281;28;20500;-44
2022/12/15 02:57:54;;;;;;;32.38;17.75;;;-4.50;99.90;;;;;;5054025;28;20107;-43
2022/12/15 03:00:21;;;;;;;31.00;16.13;;;-4.40;99.90;;;;;;5051960;28;20102;-40
2022/12/15 03:02:50;;;;;;;33.10;16.67;;;-4.30;99.90;;;;;;5054154;28;20053;-41
2022/12/15 03:05:18;;;;;;;35.25;16.48;;;-4.40;99.90;;;;;;5051960;28;20091;-42
2022/12/15 03:07:44;;;;;;;38.75;18.15;;;-4.30;99.90;;;;;;5052397;28;20069;-41
2022/12/15 03:10:12;;;;;;;30.33;16.10;;;-4.30;99.90;;;;;;5050065;28;20119;-40
2022/12/15 03:12:39;;;;;;;29.25;16.45;;;-4.30;99.90;;;;;;5050588;28;20110;-44
2022/12/15 03:15:07;;;;;;;28.85;16.35;;;-4.30;99.90;;;;;;5051757;28;20095;-39
2022/12/15 03:17:34;;;;;;;27.38;15.43;;;-4.30;99.90;;;;;;5053792;28;20060;-41
2022/12/15 03:20:02;;;;;;;38.42;18.55;;;-4.30;99.90;;;;;;5052999;28;20057;-42
2022/12/15 03:22:29;;;;;;;33.85;16.20;;;-4.30;99.90;;;;;;5052606;28;20114;-41
2022/12/15 03:24:55;;;;;;;27.98;15.02;;;-4.20;99.90;;;;;;5049980;28;20056;-42
2022/12/15 03:27:22;;;;;;;35.35;14.48;;;-4.30;99.90;;;;;;5052563;28;20049;-42
2022/12/15 03:29:49;;;;;;;26.35;15.18;;;-4.30;99.90;;;;;;5053689;28;20103;-41
2022/12/15 03:32:16;;;;;;;29.38;13.93;;;-4.30;99.90;;;;;;5049793;28;20106;-41
2022/12/15 03:34:44;;;;;;;27.58;15.27;;;-4.30;99.90;;;;;;5052395;28;20473;-42
2022/12/15 03:37:12;;;;;;;30.33;15.60;;;-4.30;99.90;;;;;;5051851;28;20053;-42
2022/12/15 03:39:38;;;;;;;36.65;16.73;;;-4.40;99.90;;;;;;5053123;28;20118;-40
2022/12/15 03:42:05;;;;;;;30.23;16.98;;;-4.40;99.90;;;;;;5049560;28;20102;-40
2022/12/15 03:44:32;;;;;;;27.90;15.55;;;-4.40;99.90;;;;;;5052323;28;20501;-39
2022/12/15 03:46:59;;;;;;;28.65;14.05;;;-4.40;99.90;;;;;;5050560;28;20076;-41
2022/12/15 03:49:26;;;;;;;31.85;15.77;;;-4.40;99.90;;;;;;5052953;28;20057;-41
2022/12/15 03:51:53;;;;;;;27.20;14.73;;;-4.40;99.90;;;;;;5048457;28;20072;-43
2022/12/15 03:54:21;;;;;;;28.60;14.65;;;-4.40;99.90;;;;;;5049863;28;20053;-41
2022/12/15 03:56:48;;;;;;;26.13;14.63;;;-4.50;99.90;;;;;;5051286;28;20052;-43
2022/12/15 03:59:15;;;;;;;33.20;16.05;;;-4.50;99.90;;;;;;5049113;28;20057;-41
2022/12/15 04:01:45;;;;;;;28.38;15.05;;;-4.50;99.90;;;;;;5053078;28;20485;-40
2022/12/15 04:04:12;;;;;;;34.38;15.73;;;-4.50;99.90;;;;;;5050182;28;20053;-40
2022/12/15 04:06:39;;;;;;;28.67;16.00;;;-4.50;99.90;;;;;;5049157;28;20068;-42
2022/12/15 04:09:06;;;;;;;28.48;14.70;;;-4.40;99.90;;;;;;5048451;28;20387;-41
2022/12/15 04:11:34;;;;;;;27.17;14.82;;;-4.40;99.90;;;;;;5051059;28;20105;-41
2022/12/15 04:14:01;;;;;;;24.30;13.10;;;-4.50;99.90;;;;;;5052443;28;20068;-39
2022/12/15 04:16:27;;;;;;;30.33;15.15;;;-4.40;99.90;;;;;;5049581;28;20053;-41
2022/12/15 04:21:35;;;;;;;31.25;15.02;;;-4.50;99.90;;;;;;5051042;28;20519;-42
2022/12/15 05:32:39;;;;;;;31.00;16.33;;;-3.90;99.90;;;;;;5050569;28;20053;-41
2022/12/15 05:35:06;;;;;;;28.33;15.35;;;-3.90;99.90;;;;;;5050767;28;20041;-39
2022/12/15 05:37:33;;;;;;;27.98;14.00;;;-3.90;99.90;;;;;;5051482;28;20845;-42
2022/12/15 05:40:00;;;;;;;38.72;16.40;;;-3.90;99.90;;;;;;5051102;28;20489;-42
2022/12/15 05:42:26;;;;;;;28.95;14.90;;;-3.80;99.90;;;;;;5047667;28;20098;-42
2022/12/15 05:44:53;;;;;;;30.92;15.23;;;-3.80;99.90;;;;;;5050697;28;20085;-41
2022/12/15 05:47:20;;;;;;;28.77;15.35;;;-3.90;99.90;;;;;;5049724;28;20092;-41
2022/12/15 05:49:48;;;;;;;28.10;14.57;;;-3.80;99.90;;;;;;5039139;28;20053;-42
2022/12/15 05:52:15;;;;;;;27.70;14.75;;;-3.90;99.90;;;;;;5055116;28;20439;-44
2022/12/15 05:54:42;;;;;;;25.15;13.48;;;-3.90;99.90;;;;;;5050252;28;20048;-36
2022/12/15 05:57:09;;;;;;;27.55;15.13;;;-3.90;99.90;;;;;;5050721;28;20094;-41
2022/12/15 05:59:35;;;;;;;33.00;16.35;;;-3.90;99.90;;;;;;5051185;28;20048;-41
2022/12/15 06:02:02;;;;;;;33.78;16.77;;;-3.80;99.90;;;;;;5050446;28;20060;-42
2022/12/15 06:04:29;;;;;;;35.33;15.32;;;-3.80;99.90;;;;;;5053379;28;20386;-41
2022/12/15 06:06:58;;;;;;;30.58;15.45;;;-3.70;99.90;;;;;;5051449;28;20049;-43
2022/12/15 06:09:24;;;;;;;30.25;15.30;;;-3.70;99.90;;;;;;5050955;28;20563;-42
2022/12/15 06:11:51;;;;;;;29.35;15.35;;;-3.70;99.90;;;;;;5051816;28;20095;-42
2022/12/15 06:14:18;;;;;;;27.98;15.80;;;-3.70;99.90;;;;;;5052579;28;20099;-39
2022/12/15 06:16:45;;;;;;;34.20;15.85;;;-3.70;99.90;;;;;;5053734;28;20505;-41
2022/12/15 06:19:12;;;;;;;29.92;16.25;;;-3.70;99.90;;;;;;5053159;28;20056;-41
2022/12/15 06:21:38;;;;;;;29.23;15.27;;;-3.70;99.90;;;;;;5049180;28;20122;-40
2022/12/15 06:24:08;;;;;;;31.42;15.48;;;-3.70;99.90;;;;;;5054678;28;20049;-42
2022/12/15 06:26:35;;;;;;;31.00;15.00;;;-3.70;99.90;;;;;;5054676;28;20049;-41
2022/12/15 06:29:02;;;;;;;25.83;14.13;;;-3.70;99.90;;;;;;5049542;28;20444;-40
2022/12/15 06:31:29;;;;;;;27.23;15.05;;;-3.70;99.90;;;;;;5052348;28;20049;-41
2022/12/15 06:33:56;;;;;;;32.08;15.77;;;-3.70;99.90;;;;;;5054396;28;20443;-41
2022/12/15 06:36:23;;;;;;;30.65;14.70;;;-3.70;99.90;;;;;;5053321;28;20049;-43
2022/12/15 06:38:50;;;;;;;26.35;14.98;;;-3.70;99.90;;;;;;5053411;28;20059;-42
2022/12/15 06:41:19;;;;;;;32.30;14.80;;;-3.50;99.90;;;;;;5052495;28;20049;-41
2022/12/15 06:43:49;;;;;;;29.88;13.75;;;-3.70;99.90;;;;;;5054342;28;20545;-41
2022/12/15 06:46:16;;;;;;;28.02;13.95;;;-3.70;99.90;;;;;;5052198;28;20111;-42
2022/12/15 06:48:44;;;;;;;24.60;13.52;;;-3.70;99.90;;;;;;5052916;28;20045;-41
2022/12/15 06:51:12;;;;;;;34.63;15.30;;;-3.70;99.90;;;;;;5052919;28;20056;-41
2022/12/15 06:53:39;;;;;;;28.35;14.27;;;-3.70;99.90;;;;;;5050933;28;20048;-40
2022/12/15 06:56:07;;;;;;;35.55;15.38;;;-3.60;99.90;;;;;;5052470;28;20049;-41
2022/12/15 06:58:36;;;;;;;31.75;15.15;;;-3.50;99.90;;;;;;5050286;28;20444;-42
2022/12/15 07:01:06;;;;;;;28.13;14.50;;;-3.40;99.90;;;;;;5045686;28;20102;-36
2022/12/15 07:03:33;;;;;;;29.33;14.97;;;-3.30;99.90;;;;;;5050239;28;20052;-42
2022/12/15 07:06:01;;;;;;;29.27;14.43;;;-3.30;99.90;;;;;;5053310;28;20087;-42
2022/12/15 07:08:28;;;;;;;29.85;14.90;;;-3.20;99.90;;;;;;5052707;28;20139;-40
2022/12/15 07:10:54;;;;;;;28.73;15.13;;;-3.10;99.90;;;;;;5050270;28;20448;-40
2022/12/15 07:13:21;;;;;;;30.92;13.95;;;-3.00;99.90;;;;;;5050721;28;20052;-42
2022/12/15 07:15:50;;;;;;;32.13;14.35;;;-3.00;99.90;;;;;;5051705;28;20063;-41
2022/12/15 07:18:16;;;;;;;26.75;14.63;;;-3.00;99.90;;;;;;5051355;28;20108;-40
2022/12/15 07:20:43;;;;;;;32.17;15.05;;;-2.90;99.90;;;;;;5049233;28;20044;-39
2022/12/15 07:23:10;;;;;;;31.30;15.88;;;-2.90;99.90;;;;;;5051338;28;20080;-41
2022/12/15 07:25:37;;;;;;;31.23;16.00;;;-2.90;99.90;;;;;;5051389;28;20053;-43
2022/12/15 07:28:04;;;;;;;27.65;16.00;;;-2.80;99.90;;;;;;5052585;28;20081;-43
2022/12/15 07:30:31;;;;;;;31.65;15.20;;;-2.80;99.90;;;;;;5050531;28;20437;-39
2022/12/15 07:32:59;;;;;;;29.85;15.20;;;-2.70;99.90;;;;;;5051475;28;20053;-40
2022/12/15 07:35:26;;;;;;;24.05;13.93;;;-2.70;99.90;;;;;;5051735;28;20061;-43
2022/12/15 07:37:53;;;;;;;30.92;14.52;;;-2.70;99.90;;;;;;5049435;28;20045;-41
2022/12/15 07:40:20;;;;;;;25.75;14.18;;;-2.80;99.90;;;;;;5051482;28;20393;-39
2022/12/15 07:42:47;;;;;;;28.77;14.95;;;-2.70;99.90;;;;;;5051639;28;20049;-41
2022/12/15 07:45:14;;;;;;;28.70;14.77;;;-2.70;99.90;;;;;;5050516;28;20555;-41
2022/12/15 07:47:40;;;;;;;23.30;14.32;;;-2.70;99.90;;;;;;5051556;28;20048;-42
2022/12/15 07:50:09;;;;;;;27.75;14.65;;;-2.80;99.90;;;;;;5050362;28;20053;-41
2022/12/15 07:52:36;;;;;;;33.13;14.02;;;-2.80;99.90;;;;;;5051315;28;20048;-38
2022/12/15 07:55:03;;;;;;;23.88;13.77;;;-2.80;99.90;;;;;;5049656;28;20402;-41
2022/12/15 07:57:31;;;;;;;25.65;13.85;;;-2.80;99.90;;;;;;5051045;28;20057;-41
2022/12/15 07:59:58;;;;;;;28.05;13.95;;;-2.70;99.90;;;;;;5052140;28;20128;-43
2022/12/15 08:02:25;;;;;;;28.13;14.05;;;-2.80;99.90;;;;;;5048819;28;20519;-40
2022/12/15 08:04:52;;;;;;;27.70;13.95;;;-2.80;99.90;;;;;;5052308;28;20053;-42
2022/12/15 08:07:20;;;;;;;28.95;14.73;;;-2.80;99.90;;;;;;5050227;28;20049;-42
2022/12/15 08:09:47;;;;;;;28.80;14.05;;;-2.80;99.90;;;;;;5050939;28;20045;-40
2022/12/15 08:12:15;;;;;;;25.25;12.60;;;-2.80;99.90;;;;;;5052002;28;20107;-46
2022/12/15 08:14:42;;;;;;;29.27;14.45;;;-2.80;99.90;;;;;;5049609;28;20096;-41
2022/12/15 08:17:09;;;;;;;23.80;14.40;;;-2.70;99.90;;;;;;5052254;28;20053;-42
2022/12/15 08:19:36;;;;;;;28.27;14.43;;;-2.80;99.90;;;;;;5052043;28;20428;-41
2022/12/15 08:22:03;;;;;;;32.20;14.02;;;-2.70;99.90;;;;;;5051873;28;20061;-41
2022/12/15 08:24:31;;;;;;;28.75;13.80;;;-2.80;99.90;;;;;;5048369;28;20085;-42
2022/12/15 08:26:58;;;;;;;24.60;12.25;;;-2.80;99.90;;;;;;5050176;28;20053;-42
2022/12/15 08:29:25;;;;;;;24.65;13.55;;;-2.70;99.90;;;;;;5051345;28;20481;-41
2022/12/15 08:31:52;;;;;;;21.77;12.68;;;-2.70;99.90;;;;;;5050034;28;20085;-40
2022/12/15 08:34:19;;;;;;;32.67;14.65;;;-2.70;99.90;;;;;;5051822;28;20548;-41
2022/12/15 08:36:45;;;;;;;28.35;13.68;;;-2.60;99.90;;;;;;5051756;28;20098;-40
2022/12/15 08:39:12;;;;;;;32.90;15.45;;;-2.50;99.90;;;;;;5051517;28;20084;-43
2022/12/15 08:41:41;;;;;;;29.90;14.98;;;-2.50;99.90;;;;;;5051486;28;20052;-42
2022/12/15 08:44:08;;;;;;;27.92;15.50;;;-2.50;99.90;;;;;;5050163;28;20063;-43
2022/12/15 08:46:35;;;;;;;25.63;14.68;;;-2.40;99.90;;;;;;5051074;28;20106;-39
2022/12/15 08:49:02;;;;;;;25.42;13.25;;;-2.30;99.90;;;;;;5051638;28;20431;-42
2022/12/15 08:51:30;;;;;;;24.65;13.45;;;-2.30;99.90;;;;;;5052769;28;20103;-43
2022/12/15 08:53:57;;;;;;;28.52;13.40;;;-2.20;99.90;;;;;;5054283;28;20095;-39
2022/12/15 08:56:24;;;;;;;26.55;13.85;;;-2.10;99.90;;;;;;5055588;28;20381;-43
2022/12/15 08:58:55;;;;;;;25.92;13.68;;;-2.10;99.90;;;;;;5053990;28;20053;-42
2022/12/15 09:01:23;;;;;;;28.10;13.88;;;-2.00;99.90;;;;;;5054490;28;20061;-40
2022/12/15 09:03:50;;;;;;;22.88;13.82;;;-1.90;99.90;;;;;;5053447;28;20091;-43
2022/12/15 09:06:18;;;;;;;27.48;13.82;;;-1.80;99.90;;;;;;5055206;28;20435;-41
2022/12/15 09:08:45;;;;;;;23.88;12.80;;;-1.80;99.90;;;;;;5055291;28;20079;-41
2022/12/15 09:11:12;;;;;;;21.65;12.18;;;-1.80;99.90;;;;;;5054451;28;20111;-41
2022/12/15 09:13:39;;;;;;;21.30;12.40;;;-1.70;99.90;;;;;;5054370;28;20075;-41
2022/12/15 09:16:11;;;;;;;23.80;13.00;;;-1.80;99.90;;;;;;5054606;28;20094;-41
2022/12/15 09:18:38;;;;;;;21.65;12.60;;;-1.70;99.90;;;;;;5055228;28;20041;-39
2022/12/15 09:21:06;;;;;;;23.23;12.35;;;-1.70;99.90;;;;;;5055467;28;20095;-41
2022/12/15 09:23:33;;;;;;;24.20;12.07;;;-1.60;99.90;;;;;;5054843;28;20061;-42
2022/12/15 09:26:00;;;;;;;26.35;13.27;;;-1.60;99.90;;;;;;5054191;28;20103;-40
2022/12/15 09:28:28;;;;;;;20.25;12.00;;;-1.50;99.90;;;;;;5054065;28;20057;-40
2022/12/15 09:30:54;;;;;;;24.00;11.68;;;-1.40;99.90;;;;;;5054457;28;20045;-38
2022/12/15 09:33:22;;;;;;;25.92;12.98;;;-1.30;99.90;;;;;;5054971;28;20045;-45
2022/12/15 09:35:50;;;;;;;22.75;12.65;;;-1.30;99.90;;;;;;5055071;28;20090;-42
2022/12/15 09:38:17;;;;;;;28.20;13.40;;;-1.10;99.90;;;;;;5054646;28;20409;-41
2022/12/15 09:40:44;;;;;;;20.58;12.23;;;-1.10;99.90;;;;;;5054731;28;20049;-40
2022/12/15 09:43:13;;;;;;;26.85;10.98;;;-1.00;99.90;;;;;;5054201;28;20048;-42
2022/12/15 09:45:43;;;;;;;20.30;12.50;;;-0.90;99.90;;;;;;5054724;28;20131;-42
2022/12/15 09:48:12;;;;;;;22.10;12.30;;;-0.80;99.90;;;;;;5053675;28;20434;-42
2022/12/15 09:50:40;;;;;;;19.00;10.07;;;-0.70;99.90;;;;;;5052384;28;20057;-40
2022/12/15 09:53:09;;;;;;;21.13;11.68;;;-0.60;99.90;;;;;;5053024;28;20517;-42
2022/12/15 09:55:36;;;;;;;21.90;11.90;;;-0.60;99.90;;;;;;5053904;28;20475;-41
2022/12/15 09:58:06;;;;;;;28.98;12.00;;;-0.50;99.90;;;;;;5053937;28;20048;-42
2022/12/15 10:00:37;;;;;;;20.00;11.32;;;-0.40;99.90;;;;;;5054592;28;20452;-42
2022/12/15 10:03:26;;;;;;;17.95;10.48;;;-0.40;99.90;;;;;;5053037;28;20053;-39
2022/12/15 10:06:07;;;;;;;20.50;10.43;;;-0.40;99.90;;;;;;5054424;28;20118;-40
2022/12/15 10:08:38;;;;;;;18.80;10.73;;;-0.30;99.90;;;;;;5051600;28;20056;-40
2022/12/15 10:11:05;;;;;;;22.95;11.50;;;-0.30;99.90;;;;;;5049661;28;20072;-39
2022/12/15 10:13:38;;;;;;;20.90;11.02;;;-0.30;99.90;;;;;;5052828;28;20053;-41
2022/12/15 10:16:08;;;;;;;19.45;10.88;;;-0.30;99.90;;;;;;5053091;28;20061;-42
2022/12/15 10:18:37;;;;;;;18.60;10.48;;;-0.30;99.90;;;;;;5052812;28;20397;-42
2022/12/15 10:21:06;;;;;;;22.88;11.32;;;-0.30;99.90;;;;;;5053682;28;20048;-41
2022/12/15 10:23:32;;;;;;;19.42;9.98;;;-0.20;99.90;;;;;;5053919;28;20062;-43
2022/12/15 10:26:01;;;;;;;16.45;10.60;;;-0.20;99.90;;;;;;5053011;28;20114;-41
2022/12/15 10:28:43;;;;;;;18.67;10.43;;;0.00;99.90;;;;;;5051048;28;20052;-40
2022/12/15 10:31:16;;;;;;;19.35;11.05;;;0.00;99.90;;;;;;5038706;28;20106;-40
2022/12/15 10:33:44;;;;;;;19.15;10.93;;;0.10;99.90;;;;;;5053802;28;20485;-43
2022/12/15 10:36:13;;;;;;;19.60;11.93;;;0.20;99.90;;;;;;5051716;28;20045;-40
2022/12/15 10:38:41;;;;;;;25.33;10.57;;;0.20;99.90;;;;;;5052035;28;20485;-46
2022/12/15 10:41:08;;;;;;;19.88;10.48;;;0.20;99.90;;;;;;5052603;28;20056;-44
2022/12/15 10:43:36;;;;;;;17.92;10.98;;;0.20;99.90;;;;;;5052547;28;20108;-43
2022/12/15 10:46:05;;;;;;;18.65;10.88;;;0.30;99.90;;;;;;5052502;28;20092;-41
2022/12/15 10:48:32;;;;;;;16.98;10.63;;;0.20;99.90;;;;;;5053485;28;20049;-42
2022/12/15 10:51:13;;;;;;;19.23;10.52;;;0.30;99.90;;;;;;5051366;28;20041;-43
2022/12/15 10:53:42;;;;;;;19.10;10.90;;;0.40;99.90;;;;;;5049436;28;20194;-44
2022/12/15 10:56:13;;;;;;;19.00;10.98;;;0.50;99.90;;;;;;5052502;28;20102;-44
2022/12/15 10:58:46;;;;;;;17.63;9.97;;;0.50;99.90;;;;;;5048392;28;20084;-43
2022/12/15 11:01:16;;;;;;;24.50;10.90;;;0.70;99.90;;;;;;5047804;28;20103;-45
2022/12/15 11:03:44;;;;;;;16.83;9.90;;;0.80;99.90;;;;;;5052809;28;20572;-43
2022/12/15 11:06:15;;;;;;;18.95;9.70;;;0.90;99.90;;;;;;5051973;28;20053;-42
2022/12/15 11:08:43;;;;;;;18.00;10.68;;;0.90;99.90;;;;;;5052525;28;20057;-40
2022/12/15 11:14:16;;;;;;;23.17;11.43;;;1.10;99.90;;;;;;5049764;28;20045;-44
2022/12/15 11:16:52;;;;;;;19.85;11.00;;;1.20;99.90;;;;;;5049789;28;20562;-39
2022/12/15 11:19:34;;;;;;;24.20;10.95;;;1.30;99.90;;;;;;5032801;28;20129;-42
2022/12/15 11:22:03;;;;;;;26.40;13.45;;;1.30;99.90;;;;;;5033090;28;20107;-40
2022/12/15 11:24:35;;;;;;;20.63;11.40;;;1.40;99.90;;;;;;5033029;28;20103;-42
2022/12/15 11:27:05;;;;;;;30.55;15.20;;;1.40;99.90;;;;;;5030644;28;20038;-41
2022/12/15 11:29:37;;;;;;;35.15;15.18;;;1.50;99.90;;;;;;5031437;28;20122;-40
2022/12/15 11:32:04;;;;;;;21.35;11.90;;;1.40;99.90;;;;;;5030260;28;20053;-45
2022/12/15 11:34:33;;;;;;;21.05;11.35;;;1.60;99.90;;;;;;5032873;28;20045;-42
2022/12/15 11:37:13;;;;;;;18.98;10.15;;;1.60;99.90;;;;;;5032638;28;20085;-42
2022/12/15 11:39:58;;;;;;;17.48;9.80;;;1.60;99.90;;;;;;5032725;28;20045;-44
2022/12/15 11:42:31;;;;;;;17.20;9.63;;;1.70;99.90;;;;;;5032408;28;20045;-43
2022/12/15 11:45:01;;;;;;;23.48;10.15;;;1.80;99.90;;;;;;5031119;28;20061;-46
2022/12/15 11:47:32;;;;;;;19.17;10.45;;;1.80;99.90;;;;;;5032054;28;20531;-45
2022/12/15 11:50:08;;;;;;;19.00;10.20;;;1.80;99.90;;;;;;5032368;28;20080;-46
2022/12/15 11:52:44;;;;;;;18.80;9.80;;;1.90;99.90;;;;;;5050165;28;20053;-44
2022/12/15 11:55:17;;;;;;;20.05;10.25;;;2.00;99.90;;;;;;5051094;28;20053;-40
2022/12/15 11:58:02;;;;;;;17.30;9.88;;;2.00;99.90;;;;;;5048103;28;20053;-45
2022/12/15 12:00:29;;;;;;;20.83;8.90;;;2.00;99.90;;;;;;5045684;28;20045;-44
2022/12/15 12:03:19;;;;;;;16.38;9.55;;;2.10;99.90;;;;;;5051756;28;20072;-43
2022/12/15 12:05:55;;;;;;;20.33;9.35;;;2.20;99.90;;;;;;5051818;28;20045;-41
2022/12/15 12:08:34;;;;;;;17.38;9.32;;;2.20;99.90;;;;;;5051834;28;20087;-44
2022/12/15 12:11:05;;;;;;;18.45;8.98;;;2.30;99.90;;;;;;5049435;28;20088;-43
2022/12/15 12:13:36;;;;;;;19.02;9.25;;;2.40;99.90;;;;;;5045318;28;20057;-43
2022/12/15 12:16:10;;;;;;;21.63;9.85;;;2.30;99.90;;;;;;5051927;28;20484;-44
2022/12/15 12:18:39;;;;;;;24.38;10.10;;;2.40;99.90;;;;;;5052096;28;20492;-44
2022/12/15 12:21:07;;;;;;;17.52;9.70;;;2.40;99.90;;;;;;5048648;28;20888;-42
2022/12/15 12:23:36;;;;;;;16.48;9.88;;;2.40;99.90;;;;;;5052284;28;20114;-45
2022/12/15 12:26:06;;;;;;;16.33;9.65;;;2.40;99.90;;;;;;5049085;28;20147;-45
2022/12/15 12:28:35;;;;;;;17.52;10.02;;;2.50;99.90;;;;;;5047706;28;20049;-44
2022/12/15 12:31:02;;;;;;;25.75;10.52;;;2.50;99.90;;;;;;5048096;28;20100;-42
2022/12/15 12:33:32;;;;;;;18.90;10.00;;;2.50;99.90;;;;;;5051939;28;20053;-43
2022/12/15 12:36:02;;;;;;;22.10;10.88;;;2.50;99.90;;;;;;5050407;28;20052;-45
2022/12/15 12:38:30;;;;;;;18.17;10.15;;;2.60;99.90;;;;;;5049881;28;20048;-44
2022/12/15 12:41:01;;;;;;;21.92;9.57;;;2.50;99.90;;;;;;5051508;28;20052;-46
2022/12/15 12:43:33;;;;;;;20.95;8.98;;;2.60;99.90;;;;;;5051476;28;20382;-42
2022/12/15 12:46:01;;;;;;;22.67;9.48;;;2.50;99.90;;;;;;5046238;28;20080;-42
2022/12/15 12:48:30;;;;;;;14.85;8.35;;;2.60;99.90;;;;;;5050525;28;20056;-43
2022/12/15 12:51:19;;;;;;;15.35;7.75;;;2.60;99.90;;;;;;5050779;28;20052;-43
2022/12/15 12:53:46;;;;;;;19.20;8.10;;;2.70;99.90;;;;;;5050162;28;20061;-47
2022/12/15 12:56:41;;;;;;;24.15;8.63;;;2.70;99.90;;;;;;5049529;28;20500;-45
2022/12/15 12:59:36;;;;;;;22.10;9.48;;;2.60;99.90;;;;;;5050615;28;20090;-41
2022/12/15 13:02:40;;;;;;;21.25;9.05;;;2.50;99.90;;;;;;5049756;28;20055;-43
2022/12/15 13:05:26;;;;;;;20.00;9.43;;;2.50;99.90;;;;;;5048004;28;20052;-47
2022/12/15 13:07:57;;;;;;;24.48;9.55;;;2.60;99.90;;;;;;5046324;28;20044;-44
2022/12/15 13:10:24;;;;;;;16.83;9.37;;;2.50;99.90;;;;;;5051029;28;20401;-44
2022/12/15 13:12:51;;;;;;;18.63;9.65;;;2.40;99.90;;;;;;5049693;28;20055;-34
2022/12/15 13:15:44;;;;;;;18.08;9.48;;;2.40;99.90;;;;;;5048546;28;20448;-44
2022/12/15 13:18:15;;;;;;;24.10;10.45;;;2.40;99.90;;;;;;5040890;28;20061;-43
2022/12/15 13:20:42;;;;;;;22.80;10.13;;;2.40;99.90;;;;;;5051199;28;20378;-44
2022/12/15 13:23:41;;;;;;;20.13;9.52;;;2.50;99.90;;;;;;5051160;28;20049;-46
2022/12/15 13:26:12;;;;;;;17.48;9.05;;;2.40;99.90;;;;;;5048753;28;20098;-46
2022/12/15 13:28:45;;;;;;;22.33;10.50;;;2.50;99.90;;;;;;5050150;28;20086;-47
2022/12/15 13:31:34;;;;;;;15.05;9.95;;;2.50;99.90;;;;;;5049867;28;20061;-46
2022/12/15 13:34:13;;;;;;;24.55;10.07;;;2.50;99.90;;;;;;5050934;28;20106;-45
2022/12/15 13:36:53;;;;;;;22.33;9.00;;;2.50;99.90;;;;;;5047230;28;20048;-43
2022/12/15 13:39:53;;;;;;;23.02;9.63;;;2.50;99.90;;;;;;5053189;28;20497;-48
2022/12/15 13:42:31;;;;;;;19.17;10.30;;;2.50;99.90;;;;;;5052115;28;20063;-48
2022/12/15 13:45:25;;;;;;;19.50;9.35;;;2.50;99.90;;;;;;5043815;28;20063;-47
2022/12/15 13:47:54;;;;;;;23.90;10.25;;;2.60;99.90;;;;;;5045183;28;20118;-47
2022/12/15 13:50:31;;;;;;;20.98;10.68;;;2.50;99.90;;;;;;5053261;28;20045;-49
2022/12/15 13:52:57;;;;;;;21.17;9.68;;;2.50;99.90;;;;;;5047447;28;20055;-48
2022/12/15 13:55:26;;;;;;;19.58;10.43;;;2.50;99.90;;;;;;5034510;28;20115;-50
2022/12/15 13:57:55;;;;;;;21.65;10.52;;;2.50;99.90;;;;;;5035450;28;20057;-45
2022/12/15 14:00:22;;;;;;;22.92;10.57;;;2.50;99.90;;;;;;5052297;28;20103;-47
2022/12/15 14:02:49;;;;;;;21.52;11.15;;;2.50;99.90;;;;;;5052868;28;20049;-51
2022/12/15 14:05:21;;;;;;;22.27;11.07;;;2.50;99.90;;;;;;5051851;28;20052;-49
2022/12/15 14:07:48;;;;;;;19.00;10.95;;;2.50;99.90;;;;;;5054115;28;20060;-50
2022/12/15 14:10:20;;;;;;;17.63;11.07;;;2.50;99.90;;;;;;5054214;28;20053;-50
2022/12/15 14:12:47;;;;;;;25.08;11.02;;;2.50;99.90;;;;;;5054849;28;20649;-47
2022/12/15 14:15:15;;;;;;;24.25;11.23;;;2.40;99.90;;;;;;5054097;28;20118;-49
2022/12/15 14:17:42;;;;;;;19.65;10.93;;;2.40;99.90;;;;;;5051183;28;20061;-49
2022/12/15 14:20:12;;;;;;;21.52;10.63;;;2.30;99.90;;;;;;5052975;28;20085;-48
2022/12/15 14:22:42;;;;;;;24.77;11.60;;;2.30;99.90;;;;;;5058167;28;20045;-47
2022/12/15 14:25:14;;;;;;;20.48;11.13;;;2.30;99.90;;;;;;5074485;28;20044;-46
2022/12/15 14:27:40;;;;;;;21.38;11.52;;;2.20;99.90;;;;;;5061689;28;20053;-50
2022/12/15 14:30:12;;;;;;;21.35;11.65;;;2.20;99.90;;;;;;5052808;28;20049;-50
2022/12/15 14:32:39;;;;;;;24.52;12.55;;;2.20;99.90;;;;;;5049908;28;20049;-49
2022/12/15 14:35:06;;;;;;;22.60;13.00;;;2.10;99.90;;;;;;5052086;28;20461;-50
2022/12/15 14:37:33;;;;;;;28.40;13.68;;;2.10;99.90;;;;;;5049512;28;20506;-47
2022/12/15 14:40:01;;;;;;;24.60;13.43;;;2.10;99.90;;;;;;5054107;28;20049;-46
2022/12/15 14:42:29;;;;;;;22.70;13.48;;;2.00;99.90;;;;;;5053101;28;20507;-49
2022/12/15 14:44:56;;;;;;;30.55;14.70;;;1.90;99.90;;;;;;5052080;28;20055;-45
2022/12/15 14:47:25;;;;;;;27.98;13.95;;;1.90;99.90;;;;;;5051456;28;20072;-51
2022/12/15 14:49:52;;;;;;;26.23;14.93;;;1.80;99.90;;;;;;5051024;28;20132;-45
2022/12/15 14:52:26;;;;;;;39.67;19.50;;;2.00;99.90;;;;;;5051158;28;20493;-45
2022/12/15 14:54:54;;;;;;;35.22;17.85;;;1.80;99.90;;;;;;5054141;28;20111;-48
2022/12/15 14:57:23;;;;;;;33.13;16.83;;;1.70;99.90;;;;;;5050951;28;20057;-50
2022/12/15 14:59:51;;;;;;;29.20;17.52;;;1.70;99.90;;;;;;5052641;28;20464;-48
2022/12/15 15:02:21;;;;;;;27.80;17.05;;;1.70;99.90;;;;;;5053780;28;20053;-46
2022/12/15 15:04:56;;;;;;;30.17;16.95;;;1.60;99.90;;;;;;5051116;28;20059;-49
2022/12/15 15:07:23;;;;;;;28.27;17.20;;;1.60;99.90;;;;;;5048237;28;20057;-50
2022/12/15 15:09:49;;;;;;;22.90;14.80;;;1.60;99.90;;;;;;5048510;28;20056;-49
2022/12/15 15:12:18;;;;;;;28.25;15.93;;;1.40;99.90;;;;;;5050134;28;20146;-50